sensor_id;sensor_type;location;lat;lon;timestamp;P1;durP1;ratioP1;P2;durP2;ratioP2
12888;SDS011;56848;49.896;11.424;2022-08-19T04:01:13;37.20;;;25.97;;
12888;SDS011;56848;49.896;11.424;2022-08-19T04:03:39;35.97;;;26.20;;
12888;SDS011;56848;49.896;11.424;2022-08-19T04:06:13;35.63;;;26.77;;
12888;SDS011;56848;49.896;11.424;2022-08-19T04:08:40;32.40;;;24.97;;
12888;SDS011;56848;49.896;11.424;2022-08-19T04:11:07;36.80;;;26.47;;
12888;SDS011;56848;49.896;11.424;2022-08-19T04:13:34;30.50;;;24.07;;
12888;SDS011;56848;49.896;11.424;2022-08-19T04:16:00;36.70;;;26.17;;
12888;SDS011;56848;49.896;11.424;2022-08-19T04:18:26;32.63;;;24.00;;
12888;SDS011;56848;49.896;11.424;2022-08-19T04:20:54;31.13;;;24.00;;
12888;SDS011;56848;49.896;11.424;2022-08-19T04:23:22;31.97;;;24.37;;
12888;SDS011;56848;49.896;11.424;2022-08-19T04:25:48;31.53;;;24.70;;
12888;SDS011;56848;49.896;11.424;2022-08-19T04:28:14;25.40;;;20.53;;
12888;SDS011;56848;49.896;11.424;2022-08-19T04:30:42;31.30;;;23.10;;
12888;SDS011;56848;49.896;11.424;2022-08-19T04:33:08;26.53;;;21.13;;
12888;SDS011;56848;49.896;11.424;2022-08-19T04:35:39;27.40;;;21.90;;
12888;SDS011;56848;49.896;11.424;2022-08-19T04:38:06;26.00;;;21.30;;
12888;SDS011;56848;49.896;11.424;2022-08-19T04:40:32;37.40;;;22.50;;
12888;SDS011;56848;49.896;11.424;2022-08-19T04:43:17;25.43;;;20.67;;
12888;SDS011;56848;49.896;11.424;2022-08-19T04:45:43;26.27;;;20.10;;
12888;SDS011;56848;49.896;11.424;2022-08-19T04:48:10;29.30;;;21.90;;
12888;SDS011;56848;49.896;11.424;2022-08-19T04:50:38;27.00;;;21.37;;
12888;SDS011;56848;49.896;11.424;2022-08-19T04:53:06;30.50;;;23.10;;
12888;SDS011;56848;49.896;11.424;2022-08-19T04:55:32;30.27;;;22.33;;
12888;SDS011;56848;49.896;11.424;2022-08-19T04:57:58;27.73;;;20.20;;
12888;SDS011;56848;49.896;11.424;2022-08-19T05:00:24;26.17;;;21.63;;
12888;SDS011;56848;49.896;11.424;2022-08-19T05:02:50;28.23;;;20.87;;
12888;SDS011;56848;49.896;11.424;2022-08-19T05:05:16;27.43;;;21.67;;
12888;SDS011;56848;49.896;11.424;2022-08-19T05:07:42;28.27;;;22.17;;
12888;SDS011;56848;49.896;11.424;2022-08-19T05:10:09;26.60;;;19.53;;
12888;SDS011;56848;49.896;11.424;2022-08-19T05:12:35;28.33;;;22.40;;
12888;SDS011;56848;49.896;11.424;2022-08-19T05:15:02;27.13;;;21.53;;
12888;SDS011;56848;49.896;11.424;2022-08-19T05:17:28;26.73;;;21.37;;
12888;SDS011;56848;49.896;11.424;2022-08-19T05:19:54;30.40;;;22.37;;
12888;SDS011;56848;49.896;11.424;2022-08-19T05:22:39;34.73;;;23.60;;
12888;SDS011;56848;49.896;11.424;2022-08-19T05:25:10;34.00;;;24.70;;
12888;SDS011;56848;49.896;11.424;2022-08-19T05:27:37;32.30;;;24.80;;
12888;SDS011;56848;49.896;11.424;2022-08-19T05:30:03;30.67;;;24.13;;
12888;SDS011;56848;49.896;11.424;2022-08-19T05:32:29;31.63;;;23.60;;
12888;SDS011;56848;49.896;11.424;2022-08-19T05:34:55;32.10;;;22.97;;
12888;SDS011;56848;49.896;11.424;2022-08-19T05:37:22;30.67;;;23.03;;
12888;SDS011;56848;49.896;11.424;2022-08-19T05:39:48;29.83;;;22.87;;
12888;SDS011;56848;49.896;11.424;2022-08-19T05:42:14;30.10;;;23.67;;
12888;SDS011;56848;49.896;11.424;2022-08-19T05:44:41;28.87;;;22.00;;
12888;SDS011;56848;49.896;11.424;2022-08-19T05:47:11;29.97;;;22.40;;
12888;SDS011;56848;49.896;11.424;2022-08-19T05:49:37;27.83;;;21.87;;
12888;SDS011;56848;49.896;11.424;2022-08-19T05:52:04;28.63;;;22.70;;
12888;SDS011;56848;49.896;11.424;2022-08-19T05:54:30;32.70;;;21.37;;
12888;SDS011;56848;49.896;11.424;2022-08-19T05:56:57;27.90;;;22.03;;
12888;SDS011;56848;49.896;11.424;2022-08-19T05:59:23;30.80;;;23.67;;
12888;SDS011;56848;49.896;11.424;2022-08-19T06:01:50;30.83;;;23.87;;
12888;SDS011;56848;49.896;11.424;2022-08-19T06:04:17;32.37;;;22.70;;
12888;SDS011;56848;49.896;11.424;2022-08-19T06:06:44;32.00;;;23.30;;
12888;SDS011;56848;49.896;11.424;2022-08-19T06:09:10;30.63;;;23.77;;
12888;SDS011;56848;49.896;11.424;2022-08-19T06:14:03;31.17;;;22.30;;
12888;SDS011;56848;49.896;11.424;2022-08-19T06:16:30;31.67;;;23.30;;
12888;SDS011;56848;49.896;11.424;2022-08-19T06:19:00;34.13;;;23.87;;
12888;SDS011;56848;49.896;11.424;2022-08-19T06:21:27;29.07;;;22.83;;
12888;SDS011;56848;49.896;11.424;2022-08-19T06:23:53;30.40;;;23.70;;
12888;SDS011;56848;49.896;11.424;2022-08-19T06:26:20;32.30;;;23.83;;
12888;SDS011;56848;49.896;11.424;2022-08-19T06:28:47;29.10;;;22.70;;
12888;SDS011;56848;49.896;11.424;2022-08-19T06:31:16;41.33;;;22.97;;
12888;SDS011;56848;49.896;11.424;2022-08-19T06:33:44;32.30;;;23.23;;
12888;SDS011;56848;49.896;11.424;2022-08-19T06:36:27;30.77;;;24.00;;
12888;SDS011;56848;49.896;11.424;2022-08-19T06:38:56;30.37;;;22.67;;
12888;SDS011;56848;49.896;11.424;2022-08-19T06:41:22;33.40;;;24.10;;
12888;SDS011;56848;49.896;11.424;2022-08-19T06:43:48;38.43;;;24.37;;
12888;SDS011;56848;49.896;11.424;2022-08-19T06:46:15;33.27;;;23.50;;
12888;SDS011;56848;49.896;11.424;2022-08-19T06:48:41;35.70;;;23.67;;
12888;SDS011;56848;49.896;11.424;2022-08-19T06:51:07;31.20;;;22.50;;
12888;SDS011;56848;49.896;11.424;2022-08-19T06:53:34;32.73;;;24.07;;
12888;SDS011;56848;49.896;11.424;2022-08-19T06:56:00;35.33;;;25.17;;
12888;SDS011;56848;49.896;11.424;2022-08-19T06:58:27;38.87;;;25.50;;
12888;SDS011;56848;49.896;11.424;2022-08-19T07:00:56;37.20;;;25.63;;
12888;SDS011;56848;49.896;11.424;2022-08-19T07:03:25;34.60;;;24.20;;
12888;SDS011;56848;49.896;11.424;2022-08-19T07:05:53;41.53;;;26.87;;
12888;SDS011;56848;49.896;11.424;2022-08-19T07:08:19;34.60;;;24.80;;
12888;SDS011;56848;49.896;11.424;2022-08-19T07:10:45;38.43;;;24.00;;
12888;SDS011;56848;49.896;11.424;2022-08-19T07:13:11;37.50;;;25.00;;
12888;SDS011;56848;49.896;11.424;2022-08-19T07:15:37;42.50;;;25.90;;
12888;SDS011;56848;49.896;11.424;2022-08-19T07:18:03;36.30;;;24.37;;
12888;SDS011;56848;49.896;11.424;2022-08-19T07:20:29;39.13;;;23.07;;
12888;SDS011;56848;49.896;11.424;2022-08-19T07:22:56;38.27;;;25.77;;
12888;SDS011;56848;49.896;11.424;2022-08-19T07:25:22;35.13;;;23.53;;
12888;SDS011;56848;49.896;11.424;2022-08-19T07:27:48;40.20;;;25.10;;
12888;SDS011;56848;49.896;11.424;2022-08-19T07:30:15;32.40;;;23.33;;
12888;SDS011;56848;49.896;11.424;2022-08-19T07:32:42;37.10;;;24.10;;
12888;SDS011;56848;49.896;11.424;2022-08-19T07:35:08;33.33;;;23.87;;
12888;SDS011;56848;49.896;11.424;2022-08-19T07:37:35;35.60;;;24.00;;
12888;SDS011;56848;49.896;11.424;2022-08-19T07:40:03;36.27;;;23.90;;
12888;SDS011;56848;49.896;11.424;2022-08-19T07:42:29;40.87;;;25.30;;
12888;SDS011;56848;49.896;11.424;2022-08-19T07:44:55;32.20;;;22.27;;
12888;SDS011;56848;49.896;11.424;2022-08-19T07:47:21;35.60;;;23.30;;
12888;SDS011;56848;49.896;11.424;2022-08-19T07:49:47;34.50;;;23.93;;
12888;SDS011;56848;49.896;11.424;2022-08-19T07:52:13;34.13;;;25.03;;
12888;SDS011;56848;49.896;11.424;2022-08-19T07:54:41;31.43;;;22.93;;
12888;SDS011;56848;49.896;11.424;2022-08-19T07:57:07;33.00;;;24.43;;
12888;SDS011;56848;49.896;11.424;2022-08-19T07:59:34;32.27;;;23.57;;
12888;SDS011;56848;49.896;11.424;2022-08-19T08:02:00;39.57;;;23.90;;
12888;SDS011;56848;49.896;11.424;2022-08-19T08:04:27;36.63;;;24.60;;
12888;SDS011;56848;49.896;11.424;2022-08-19T08:07:12;35.07;;;24.53;;
12888;SDS011;56848;49.896;11.424;2022-08-19T08:09:56;37.30;;;24.27;;
12888;SDS011;56848;49.896;11.424;2022-08-19T08:12:24;39.40;;;25.07;;
12888;SDS011;56848;49.896;11.424;2022-08-19T08:14:54;41.57;;;26.50;;
12888;SDS011;56848;49.896;11.424;2022-08-19T08:17:22;33.60;;;24.20;;
12888;SDS011;56848;49.896;11.424;2022-08-19T08:19:49;33.63;;;24.33;;
12888;SDS011;56848;49.896;11.424;2022-08-19T08:22:17;35.00;;;25.50;;
12888;SDS011;56848;49.896;11.424;2022-08-19T08:25:05;29.57;;;20.47;;
12888;SDS011;56848;49.896;11.424;2022-08-19T08:27:35;30.77;;;22.30;;
12888;SDS011;56848;49.896;11.424;2022-08-19T08:30:02;32.50;;;22.63;;
12888;SDS011;56848;49.896;11.424;2022-08-19T08:32:29;29.43;;;21.20;;
12888;SDS011;56848;49.896;11.424;2022-08-19T08:34:55;29.07;;;19.53;;
12888;SDS011;56848;49.896;11.424;2022-08-19T08:37:21;28.97;;;21.20;;
12888;SDS011;56848;49.896;11.424;2022-08-19T08:39:47;29.80;;;20.37;;
12888;SDS011;56848;49.896;11.424;2022-08-19T08:42:17;27.40;;;19.23;;
12888;SDS011;56848;49.896;11.424;2022-08-19T08:44:52;33.23;;;20.73;;
12888;SDS011;56848;49.896;11.424;2022-08-19T08:47:19;30.20;;;20.77;;
12888;SDS011;56848;49.896;11.424;2022-08-19T08:54:39;26.77;;;19.47;;
12888;SDS011;56848;49.896;11.424;2022-08-19T08:57:12;27.50;;;18.60;;
12888;SDS011;56848;49.896;11.424;2022-08-19T08:59:40;27.70;;;20.07;;
12888;SDS011;56848;49.896;11.424;2022-08-19T09:02:07;28.83;;;20.63;;
12888;SDS011;56848;49.896;11.424;2022-08-19T09:04:34;23.63;;;18.33;;
12888;SDS011;56848;49.896;11.424;2022-08-19T09:09:39;27.10;;;20.87;;
12888;SDS011;56848;49.896;11.424;2022-08-19T09:12:09;27.23;;;19.60;;
12888;SDS011;56848;49.896;11.424;2022-08-19T09:14:48;33.00;;;23.17;;
12888;SDS011;56848;49.896;11.424;2022-08-19T09:17:15;32.43;;;20.70;;
12888;SDS011;56848;49.896;11.424;2022-08-19T09:19:49;36.77;;;23.20;;
12888;SDS011;56848;49.896;11.424;2022-08-19T09:22:15;33.90;;;22.57;;
12888;SDS011;56848;49.896;11.424;2022-08-19T09:24:41;33.23;;;22.87;;
12888;SDS011;56848;49.896;11.424;2022-08-19T09:27:07;36.30;;;24.10;;
12888;SDS011;56848;49.896;11.424;2022-08-19T09:29:33;40.13;;;23.60;;
12888;SDS011;56848;49.896;11.424;2022-08-19T09:31:59;35.30;;;24.70;;
12888;SDS011;56848;49.896;11.424;2022-08-19T09:34:25;36.23;;;24.13;;
12888;SDS011;56848;49.896;11.424;2022-08-19T09:36:54;36.97;;;23.83;;
12888;SDS011;56848;49.896;11.424;2022-08-19T09:39:23;36.83;;;25.17;;
12888;SDS011;56848;49.896;11.424;2022-08-19T09:41:49;33.43;;;22.97;;
12888;SDS011;56848;49.896;11.424;2022-08-19T09:44:15;35.87;;;24.40;;
12888;SDS011;56848;49.896;11.424;2022-08-19T09:46:41;40.97;;;24.30;;
12888;SDS011;56848;49.896;11.424;2022-08-19T09:49:07;39.67;;;24.70;;
12888;SDS011;56848;49.896;11.424;2022-08-19T09:51:33;42.77;;;27.30;;
12888;SDS011;56848;49.896;11.424;2022-08-19T09:54:00;33.50;;;25.83;;
12888;SDS011;56848;49.896;11.424;2022-08-19T09:56:27;34.93;;;25.20;;
12888;SDS011;56848;49.896;11.424;2022-08-19T09:58:53;37.23;;;25.80;;
12888;SDS011;56848;49.896;11.424;2022-08-19T10:01:20;36.80;;;24.77;;
12888;SDS011;56848;49.896;11.424;2022-08-19T10:03:51;34.33;;;24.63;;
12888;SDS011;56848;49.896;11.424;2022-08-19T10:06:19;35.03;;;24.60;;
12888;SDS011;56848;49.896;11.424;2022-08-19T10:08:46;32.50;;;23.77;;
12888;SDS011;56848;49.896;11.424;2022-08-19T10:11:12;32.63;;;24.37;;
12888;SDS011;56848;49.896;11.424;2022-08-19T10:13:40;33.33;;;24.60;;
12888;SDS011;56848;49.896;11.424;2022-08-19T10:16:08;32.60;;;24.10;;
12888;SDS011;56848;49.896;11.424;2022-08-19T10:18:35;30.40;;;22.53;;
12888;SDS011;56848;49.896;11.424;2022-08-19T10:21:06;26.17;;;19.00;;
12888;SDS011;56848;49.896;11.424;2022-08-19T10:23:33;26.17;;;18.73;;
12888;SDS011;56848;49.896;11.424;2022-08-19T10:26:00;24.70;;;18.67;;
12888;SDS011;56848;49.896;11.424;2022-08-19T10:28:26;25.80;;;17.83;;
12888;SDS011;56848;49.896;11.424;2022-08-19T10:30:52;22.90;;;17.70;;
12888;SDS011;56848;49.896;11.424;2022-08-19T10:33:18;22.30;;;17.03;;
12888;SDS011;56848;49.896;11.424;2022-08-19T10:35:44;23.13;;;18.30;;
12888;SDS011;56848;49.896;11.424;2022-08-19T10:38:11;22.63;;;17.93;;
12888;SDS011;56848;49.896;11.424;2022-08-19T10:40:37;22.90;;;17.63;;
12888;SDS011;56848;49.896;11.424;2022-08-19T10:43:03;22.90;;;16.97;;
12888;SDS011;56848;49.896;11.424;2022-08-19T10:45:29;21.00;;;17.33;;
12888;SDS011;56848;49.896;11.424;2022-08-19T10:47:55;25.43;;;16.97;;
12888;SDS011;56848;49.896;11.424;2022-08-19T10:50:21;26.87;;;17.37;;
12888;SDS011;56848;49.896;11.424;2022-08-19T10:53:06;24.80;;;16.13;;
12888;SDS011;56848;49.896;11.424;2022-08-19T10:55:33;19.47;;;15.20;;
12888;SDS011;56848;49.896;11.424;2022-08-19T10:58:19;19.00;;;15.97;;
12888;SDS011;56848;49.896;11.424;2022-08-19T11:00:54;16.77;;;14.87;;
12888;SDS011;56848;49.896;11.424;2022-08-19T11:03:21;20.47;;;15.87;;
12888;SDS011;56848;49.896;11.424;2022-08-19T11:05:56;20.40;;;14.50;;
12888;SDS011;56848;49.896;11.424;2022-08-19T11:08:22;19.37;;;14.80;;
12888;SDS011;56848;49.896;11.424;2022-08-19T11:10:50;22.33;;;16.33;;
12888;SDS011;56848;49.896;11.424;2022-08-19T11:13:16;22.53;;;15.20;;
12888;SDS011;56848;49.896;11.424;2022-08-19T11:15:42;21.30;;;15.27;;
12888;SDS011;56848;49.896;11.424;2022-08-19T11:18:10;20.10;;;14.27;;
12888;SDS011;56848;49.896;11.424;2022-08-19T11:20:36;17.60;;;13.97;;
12888;SDS011;56848;49.896;11.424;2022-08-19T11:23:02;18.77;;;14.50;;
12888;SDS011;56848;49.896;11.424;2022-08-19T11:25:29;17.20;;;13.67;;
12888;SDS011;56848;49.896;11.424;2022-08-19T11:27:55;19.60;;;14.50;;
12888;SDS011;56848;49.896;11.424;2022-08-19T11:30:21;16.97;;;13.57;;
12888;SDS011;56848;49.896;11.424;2022-08-19T11:32:47;15.43;;;13.47;;
12888;SDS011;56848;49.896;11.424;2022-08-19T11:35:13;15.67;;;13.77;;
12888;SDS011;56848;49.896;11.424;2022-08-19T11:37:39;17.97;;;14.33;;
12888;SDS011;56848;49.896;11.424;2022-08-19T11:40:05;17.80;;;13.87;;
12888;SDS011;56848;49.896;11.424;2022-08-19T11:42:31;17.20;;;13.70;;
12888;SDS011;56848;49.896;11.424;2022-08-19T11:45:16;18.90;;;15.10;;
12888;SDS011;56848;49.896;11.424;2022-08-19T11:47:42;20.90;;;15.30;;
12888;SDS011;56848;49.896;11.424;2022-08-19T11:50:09;16.63;;;14.27;;
12888;SDS011;56848;49.896;11.424;2022-08-19T11:52:34;15.80;;;12.63;;
12888;SDS011;56848;49.896;11.424;2022-08-19T11:55:01;15.53;;;12.60;;
12888;SDS011;56848;49.896;11.424;2022-08-19T11:57:27;17.00;;;13.57;;
12888;SDS011;56848;49.896;11.424;2022-08-19T11:59:54;23.50;;;15.50;;
12888;SDS011;56848;49.896;11.424;2022-08-19T12:02:20;17.20;;;14.00;;
12888;SDS011;56848;49.896;11.424;2022-08-19T12:04:46;15.73;;;12.70;;
12888;SDS011;56848;49.896;11.424;2022-08-19T12:07:12;19.07;;;14.40;;
12888;SDS011;56848;49.896;11.424;2022-08-19T12:09:38;18.17;;;13.33;;
12888;SDS011;56848;49.896;11.424;2022-08-19T12:12:04;18.63;;;13.63;;
12888;SDS011;56848;49.896;11.424;2022-08-19T12:14:31;19.90;;;12.80;;
12888;SDS011;56848;49.896;11.424;2022-08-19T12:16:57;16.83;;;12.87;;
12888;SDS011;56848;49.896;11.424;2022-08-19T12:19:23;14.00;;;11.20;;
12888;SDS011;56848;49.896;11.424;2022-08-19T12:21:50;17.90;;;11.23;;
12888;SDS011;56848;49.896;11.424;2022-08-19T12:24:17;11.40;;;10.20;;
12888;SDS011;56848;49.896;11.424;2022-08-19T12:26:48;9.93;;;8.87;;
12888;SDS011;56848;49.896;11.424;2022-08-19T12:29:15;10.87;;;9.23;;
12888;SDS011;56848;49.896;11.424;2022-08-19T12:31:41;11.90;;;8.80;;
12888;SDS011;56848;49.896;11.424;2022-08-19T12:34:07;8.00;;;7.20;;
12888;SDS011;56848;49.896;11.424;2022-08-19T12:36:33;7.83;;;6.80;;
12888;SDS011;56848;49.896;11.424;2022-08-19T12:38:59;10.43;;;7.20;;
12888;SDS011;56848;49.896;11.424;2022-08-19T12:41:26;7.10;;;6.40;;
12888;SDS011;56848;49.896;11.424;2022-08-19T12:43:52;7.20;;;6.50;;
12888;SDS011;56848;49.896;11.424;2022-08-19T12:46:18;7.70;;;7.00;;
12888;SDS011;56848;49.896;11.424;2022-08-19T12:48:44;7.20;;;6.50;;
12888;SDS011;56848;49.896;11.424;2022-08-19T12:51:14;7.70;;;6.17;;
12888;SDS011;56848;49.896;11.424;2022-08-19T12:53:41;9.60;;;6.47;;
12888;SDS011;56848;49.896;11.424;2022-08-19T12:56:08;8.20;;;7.33;;
12888;SDS011;56848;49.896;11.424;2022-08-19T12:58:34;7.37;;;6.50;;
12888;SDS011;56848;49.896;11.424;2022-08-19T13:01:08;8.40;;;6.33;;
12888;SDS011;56848;49.896;11.424;2022-08-19T13:03:35;9.27;;;7.47;;
12888;SDS011;56848;49.896;11.424;2022-08-19T13:06:01;10.73;;;6.90;;
12888;SDS011;56848;49.896;11.424;2022-08-19T13:08:27;8.77;;;6.63;;
12888;SDS011;56848;49.896;11.424;2022-08-19T13:10:53;7.00;;;6.17;;
12888;SDS011;56848;49.896;11.424;2022-08-19T13:13:20;11.00;;;6.50;;
12888;SDS011;56848;49.896;11.424;2022-08-19T13:15:46;9.47;;;6.90;;
12888;SDS011;56848;49.896;11.424;2022-08-19T13:18:12;9.83;;;6.87;;
12888;SDS011;56848;49.896;11.424;2022-08-19T13:20:39;7.73;;;6.50;;
12888;SDS011;56848;49.896;11.424;2022-08-19T13:23:05;8.17;;;7.20;;
12888;SDS011;56848;49.896;11.424;2022-08-19T13:25:31;7.40;;;6.33;;
12888;SDS011;56848;49.896;11.424;2022-08-19T13:27:58;8.70;;;7.23;;
12888;SDS011;56848;49.896;11.424;2022-08-19T13:30:25;7.13;;;6.23;;
12888;SDS011;56848;49.896;11.424;2022-08-19T13:33:09;8.30;;;7.50;;
12888;SDS011;56848;49.896;11.424;2022-08-19T13:35:36;11.37;;;7.10;;
12888;SDS011;56848;49.896;11.424;2022-08-19T13:38:02;9.90;;;8.03;;
12888;SDS011;56848;49.896;11.424;2022-08-19T13:40:30;8.53;;;7.53;;
12888;SDS011;56848;49.896;11.424;2022-08-19T13:42:59;9.67;;;7.30;;
12888;SDS011;56848;49.896;11.424;2022-08-19T13:45:26;8.97;;;8.07;;
12888;SDS011;56848;49.896;11.424;2022-08-19T13:47:53;8.30;;;7.40;;
12888;SDS011;56848;49.896;11.424;2022-08-19T13:50:22;7.63;;;6.73;;
12888;SDS011;56848;49.896;11.424;2022-08-19T13:52:50;8.70;;;7.67;;
12888;SDS011;56848;49.896;11.424;2022-08-19T13:55:16;7.63;;;6.83;;
12888;SDS011;56848;49.896;11.424;2022-08-19T13:57:42;8.63;;;7.83;;
12888;SDS011;56848;49.896;11.424;2022-08-19T14:00:10;9.10;;;8.20;;
12888;SDS011;56848;49.896;11.424;2022-08-19T14:02:37;8.33;;;7.50;;
12888;SDS011;56848;49.896;11.424;2022-08-19T14:05:04;7.93;;;7.13;;
12888;SDS011;56848;49.896;11.424;2022-08-19T14:07:30;10.80;;;7.97;;
12888;SDS011;56848;49.896;11.424;2022-08-19T14:09:57;8.03;;;7.23;;
12888;SDS011;56848;49.896;11.424;2022-08-19T14:12:23;8.47;;;7.67;;
12888;SDS011;56848;49.896;11.424;2022-08-19T14:14:49;9.03;;;7.90;;
12888;SDS011;56848;49.896;11.424;2022-08-19T14:17:15;9.60;;;7.63;;
12888;SDS011;56848;49.896;11.424;2022-08-19T14:19:41;8.63;;;7.50;;
12888;SDS011;56848;49.896;11.424;2022-08-19T14:22:07;10.73;;;8.07;;
12888;SDS011;56848;49.896;11.424;2022-08-19T14:24:33;9.03;;;8.17;;
12888;SDS011;56848;49.896;11.424;2022-08-19T14:26:59;13.90;;;8.33;;
12888;SDS011;56848;49.896;11.424;2022-08-19T14:29:26;11.07;;;8.70;;
12888;SDS011;56848;49.896;11.424;2022-08-19T14:31:53;11.53;;;8.63;;
12888;SDS011;56848;49.896;11.424;2022-08-19T14:34:21;10.73;;;7.90;;
12888;SDS011;56848;49.896;11.424;2022-08-19T14:36:47;10.40;;;8.30;;
12888;SDS011;56848;49.896;11.424;2022-08-19T14:39:13;10.83;;;8.60;;
12888;SDS011;56848;49.896;11.424;2022-08-19T14:41:39;13.23;;;8.60;;
12888;SDS011;56848;49.896;11.424;2022-08-19T14:44:07;9.63;;;8.73;;
12888;SDS011;56848;49.896;11.424;2022-08-19T14:46:37;9.23;;;8.30;;
12888;SDS011;56848;49.896;11.424;2022-08-19T14:49:03;8.70;;;7.87;;
12888;SDS011;56848;49.896;11.424;2022-08-19T14:51:29;8.90;;;8.00;;
12888;SDS011;56848;49.896;11.424;2022-08-19T14:53:55;12.10;;;7.67;;
12888;SDS011;56848;49.896;11.424;2022-08-19T14:56:22;9.17;;;8.30;;
12888;SDS011;56848;49.896;11.424;2022-08-19T14:58:48;11.73;;;8.90;;
12888;SDS011;56848;49.896;11.424;2022-08-19T15:01:18;9.00;;;8.20;;
12888;SDS011;56848;49.896;11.424;2022-08-19T15:03:47;9.20;;;8.30;;
12888;SDS011;56848;49.896;11.424;2022-08-19T15:06:14;10.27;;;7.77;;
12888;SDS011;56848;49.896;11.424;2022-08-19T15:08:40;8.10;;;7.30;;
12888;SDS011;56848;49.896;11.424;2022-08-19T15:11:08;8.73;;;7.93;;
12888;SDS011;56848;49.896;11.424;2022-08-19T15:13:35;8.63;;;7.73;;
12888;SDS011;56848;49.896;11.424;2022-08-19T15:16:01;7.97;;;7.10;;
12888;SDS011;56848;49.896;11.424;2022-08-19T15:18:27;8.73;;;7.20;;
12888;SDS011;56848;49.896;11.424;2022-08-19T15:20:53;12.00;;;7.53;;
12888;SDS011;56848;49.896;11.424;2022-08-19T15:23:20;9.37;;;7.57;;
12888;SDS011;56848;49.896;11.424;2022-08-19T15:25:46;9.40;;;6.73;;
12888;SDS011;56848;49.896;11.424;2022-08-19T15:28:13;7.83;;;7.07;;
12888;SDS011;56848;49.896;11.424;2022-08-19T15:30:41;7.67;;;6.87;;
12888;SDS011;56848;49.896;11.424;2022-08-19T15:33:09;8.40;;;7.47;;
12888;SDS011;56848;49.896;11.424;2022-08-19T15:35:39;8.97;;;8.07;;
12888;SDS011;56848;49.896;11.424;2022-08-19T15:38:05;9.07;;;7.90;;
12888;SDS011;56848;49.896;11.424;2022-08-19T15:40:32;9.40;;;7.90;;
12888;SDS011;56848;49.896;11.424;2022-08-19T15:42:59;8.30;;;7.50;;
12888;SDS011;56848;49.896;11.424;2022-08-19T15:45:25;14.67;;;8.70;;
12888;SDS011;56848;49.896;11.424;2022-08-19T15:47:58;9.33;;;8.30;;
12888;SDS011;56848;49.896;11.424;2022-08-19T15:50:24;9.33;;;8.33;;
12888;SDS011;56848;49.896;11.424;2022-08-19T15:52:54;8.20;;;7.40;;
12888;SDS011;56848;49.896;11.424;2022-08-19T15:55:22;8.20;;;7.40;;
12888;SDS011;56848;49.896;11.424;2022-08-19T15:57:48;9.53;;;7.07;;
12888;SDS011;56848;49.896;11.424;2022-08-19T16:00:33;7.77;;;6.97;;
12888;SDS011;56848;49.896;11.424;2022-08-19T16:03:17;11.00;;;7.07;;
12888;SDS011;56848;49.896;11.424;2022-08-19T16:06:02;7.80;;;6.90;;
12888;SDS011;56848;49.896;11.424;2022-08-19T16:08:46;8.50;;;6.83;;
12888;SDS011;56848;49.896;11.424;2022-08-19T16:11:14;13.03;;;6.70;;
12888;SDS011;56848;49.896;11.424;2022-08-19T16:13:43;8.10;;;7.03;;
12888;SDS011;56848;49.896;11.424;2022-08-19T16:16:09;9.10;;;6.23;;
12888;SDS011;56848;49.896;11.424;2022-08-19T16:18:35;7.03;;;6.33;;
12888;SDS011;56848;49.896;11.424;2022-08-19T16:21:03;12.13;;;7.37;;
12888;SDS011;56848;49.896;11.424;2022-08-19T16:23:30;7.70;;;7.00;;
12888;SDS011;56848;49.896;11.424;2022-08-19T16:25:56;7.37;;;6.33;;
12888;SDS011;56848;49.896;11.424;2022-08-19T16:28:22;8.97;;;6.77;;
12888;SDS011;56848;49.896;11.424;2022-08-19T16:30:48;11.33;;;6.80;;
12888;SDS011;56848;49.896;11.424;2022-08-19T16:33:14;9.10;;;6.57;;
12888;SDS011;56848;49.896;11.424;2022-08-19T16:35:40;8.97;;;6.30;;
12888;SDS011;56848;49.896;11.424;2022-08-19T16:38:06;8.93;;;6.63;;
12888;SDS011;56848;49.896;11.424;2022-08-19T16:40:33;9.63;;;6.93;;
12888;SDS011;56848;49.896;11.424;2022-08-19T16:42:59;11.47;;;6.50;;
12888;SDS011;56848;49.896;11.424;2022-08-19T16:45:27;7.87;;;6.43;;
12888;SDS011;56848;49.896;11.424;2022-08-19T16:47:53;7.37;;;6.67;;
12888;SDS011;56848;49.896;11.424;2022-08-19T16:50:21;7.47;;;6.67;;
12888;SDS011;56848;49.896;11.424;2022-08-19T16:52:47;10.17;;;6.70;;
12888;SDS011;56848;49.896;11.424;2022-08-19T16:55:13;10.37;;;7.40;;
12888;SDS011;56848;49.896;11.424;2022-08-19T16:57:40;7.67;;;6.90;;
12888;SDS011;56848;49.896;11.424;2022-08-19T17:00:06;8.77;;;7.60;;
12888;SDS011;56848;49.896;11.424;2022-08-19T17:02:36;10.70;;;7.20;;
12888;SDS011;56848;49.896;11.424;2022-08-19T17:05:04;10.43;;;7.30;;
12888;SDS011;56848;49.896;11.424;2022-08-19T17:07:30;8.93;;;6.90;;
12888;SDS011;56848;49.896;11.424;2022-08-19T17:09:56;10.80;;;7.50;;
12888;SDS011;56848;49.896;11.424;2022-08-19T17:12:24;11.20;;;8.30;;
12888;SDS011;56848;49.896;11.424;2022-08-19T17:14:51;9.10;;;8.20;;
12888;SDS011;56848;49.896;11.424;2022-08-19T17:17:17;11.03;;;8.60;;
12888;SDS011;56848;49.896;11.424;2022-08-19T17:19:43;11.20;;;7.27;;
12888;SDS011;56848;49.896;11.424;2022-08-19T17:22:09;16.63;;;8.40;;
12888;SDS011;56848;49.896;11.424;2022-08-19T17:24:36;11.03;;;8.83;;
12888;SDS011;56848;49.896;11.424;2022-08-19T17:27:03;9.03;;;7.80;;
12888;SDS011;56848;49.896;11.424;2022-08-19T17:29:30;9.57;;;8.57;;
12888;SDS011;56848;49.896;11.424;2022-08-19T17:31:56;9.50;;;8.50;;
12888;SDS011;56848;49.896;11.424;2022-08-19T17:34:22;10.53;;;8.43;;
12888;SDS011;56848;49.896;11.424;2022-08-19T17:36:48;9.40;;;8.30;;
12888;SDS011;56848;49.896;11.424;2022-08-19T17:39:14;14.17;;;8.10;;
12888;SDS011;56848;49.896;11.424;2022-08-19T17:41:40;14.03;;;8.90;;
12888;SDS011;56848;49.896;11.424;2022-08-19T17:44:08;9.70;;;8.43;;
12888;SDS011;56848;49.896;11.424;2022-08-19T17:46:34;10.33;;;8.60;;
12888;SDS011;56848;49.896;11.424;2022-08-19T17:49:00;13.30;;;8.33;;
12888;SDS011;56848;49.896;11.424;2022-08-19T17:53:59;11.93;;;9.13;;
12888;SDS011;56848;49.896;11.424;2022-08-19T17:56:26;12.27;;;9.33;;
12888;SDS011;56848;49.896;11.424;2022-08-19T17:58:55;10.67;;;9.13;;
12888;SDS011;56848;49.896;11.424;2022-08-19T18:01:21;9.70;;;7.93;;
12888;SDS011;56848;49.896;11.424;2022-08-19T18:03:47;16.03;;;9.50;;
12888;SDS011;56848;49.896;11.424;2022-08-19T18:06:14;14.60;;;10.13;;
12888;SDS011;56848;49.896;11.424;2022-08-19T18:08:40;18.50;;;10.40;;
12888;SDS011;56848;49.896;11.424;2022-08-19T18:11:07;12.43;;;11.13;;
12888;SDS011;56848;49.896;11.424;2022-08-19T18:13:34;14.80;;;10.07;;
12888;SDS011;56848;49.896;11.424;2022-08-19T18:16:00;10.73;;;9.63;;
12888;SDS011;56848;49.896;11.424;2022-08-19T18:18:26;14.93;;;10.30;;
12888;SDS011;56848;49.896;11.424;2022-08-19T18:20:53;13.80;;;10.53;;
12888;SDS011;56848;49.896;11.424;2022-08-19T18:23:19;10.63;;;9.53;;
12888;SDS011;56848;49.896;11.424;2022-08-19T18:25:45;8.60;;;7.70;;
12888;SDS011;56848;49.896;11.424;2022-08-19T18:28:12;8.60;;;7.63;;
12888;SDS011;56848;49.896;11.424;2022-08-19T18:30:38;11.00;;;7.63;;
12888;SDS011;56848;49.896;11.424;2022-08-19T18:33:05;9.93;;;7.40;;